Molina de Segura, Spain
Current Conditions -  °F | °C
As of 7:00 AM on Friday 31 Oct 2014 (Local Time) from LELC Reporting Station
Few Clouds Few Clouds  
Wind Chill: 61°   Ceiling: Unl
Heat Index: 61°   Visibility: 6mi
Dew Point: 61°   Wind: 5mph
Humidity: 100%   Direction: 330°NNW
Pressure: 30.21"   Gusts: NA
Location:  38.05°N, 1.21°W
Report Text: LELC 310600Z 33004KT 9000 FEW015 16/16 Q1023 NOSIG
Loading
Personal Weather Stations






























Interactive Weather Map
Tropical Storm Tracking
New forecast layout! Learn more

10-Day Weather Forecast

Advertisements
Track Severe Weather on mobile